Mill Creek, West Virginia
Current Conditions -  °F | °C
As of 1:51 PM on Saturday 20 Dec 2014 (Local Time) from KEKN Reporting Station
Overcast Overcast  
Wind Chill:   Ceiling: 7000
Heat Index:   Visibility: 10mi
Dew Point: -4°   Wind: 3mph
Humidity: 67%   Direction: 310°NW
Pressure: 30.15"   Gusts: NA
Location:  38.73°N, 79.97°W
Report Text: KEKN 201851Z AUTO 31003KT 10SM BKN070 OVC090 01/M04 A3015 RMK AO2 SLP235 T00111044 TSNO $
Loading
Personal Weather Stations






























Interactive Weather Map New forecast layout! Learn more

10-Day Weather Forecast

Advertisements
Track Severe Weather on mobile